TimeCST,TemperatureF,Dew PointF,Humidity,Sea Level PressureIn,VisibilityMPH,Wind Direction,Wind SpeedMPH,Gust SpeedMPH,PrecipitationIn,Events,Conditions,WindDirDegrees,DateUTC
12:51 AM,55.0,51.1,86,29.91,10.0,NE,4.6,-,N/A,,Clear,40,2013-11-16 06:51:00
1:28 AM,55.9,52.0,87,29.93,10.0,NNE,4.6,-,N/A,,Partly Cloudy,30,2013-11-16 07:28:00
1:40 AM,55.9,52.0,87,29.93,10.0,NE,3.5,-,N/A,,Mostly Cloudy,40,2013-11-16 07:40:00
1:51 AM,57.0,53.1,87,29.89,10.0,Calm,Calm,-,N/A,,Overcast,0,2013-11-16 07:51:00
2:25 AM,62.1,57.9,86,29.91,10.0,SE,6.9,-,N/A,,Overcast,130,2013-11-16 08:25:00
2:51 AM,64.0,61.0,90,29.88,6.0,SSE,9.2,-,N/A,,Overcast,150,2013-11-16 08:51:00
3:03 AM,64.0,61.0,90,29.91,2.0,SE,8.1,-,N/A,,Overcast,140,2013-11-16 09:03:00
3:11 AM,64.0,61.0,90,29.91,1.2,SSE,8.1,-,N/A,,Overcast,150,2013-11-16 09:11:00
3:18 AM,64.0,61.0,90,29.91,0.8,SE,6.9,-,N/A,,Overcast,130,2013-11-16 09:18:00
3:25 AM,64.0,61.0,90,29.90,1.2,SSE,6.9,-,N/A,,Overcast,150,2013-11-16 09:25:00
3:31 AM,64.0,61.0,90,29.90,2.5,SE,5.8,-,N/A,,Overcast,140,2013-11-16 09:31:00
3:39 AM,64.9,61.0,87,29.91,5.0,SSE,6.9,-,N/A,,Overcast,160,2013-11-16 09:39:00
3:51 AM,64.9,62.1,90,29.87,6.0,SSE,8.1,-,N/A,,Overcast,160,2013-11-16 09:51:00
4:37 AM,66.0,62.1,87,29.91,8.0,South,9.2,-,N/A,,Overcast,170,2013-11-16 10:37:00
4:47 AM,66.2,62.6,88,29.91,9.0,South,8.1,-,N/A,,Overcast,170,2013-11-16 10:47:00
4:51 AM,66.0,62.1,87,29.87,10.0,SSE,8.1,-,N/A,,Overcast,160,2013-11-16 10:51:00
5:51 AM,66.0,62.1,87,29.87,6.0,SSE,8.1,-,N/A,,Overcast,150,2013-11-16 11:51:00
6:00 AM,66.0,63.0,90,29.90,6.0,SSE,6.9,-,N/A,,Overcast,160,2013-11-16 12:00:00
6:19 AM,66.0,63.0,90,29.91,8.0,SSE,6.9,-,N/A,,Overcast,160,2013-11-16 12:19:00
6:35 AM,66.9,63.0,87,29.90,9.0,SSE,9.2,-,N/A,,Overcast,160,2013-11-16 12:35:00
6:51 AM,66.9,63.0,87,29.87,10.0,SSE,6.9,-,N/A,,Overcast,160,2013-11-16 12:51:00
7:51 AM,68.0,63.0,84,29.89,10.0,SE,4.6,-,N/A,,Overcast,130,2013-11-16 13:51:00
8:51 AM,69.1,63.0,81,29.90,10.0,South,5.8,-,N/A,,Overcast,170,2013-11-16 14:51:00
9:51 AM,73.0,63.0,71,29.91,10.0,SSE,8.1,-,N/A,,Mostly Cloudy,160,2013-11-16 15:51:00
10:07 AM,73.0,63.0,71,29.94,10.0,South,11.5,-,N/A,,Overcast,190,2013-11-16 16:07:00
10:51 AM,78.1,63.0,60,29.88,10.0,SSE,8.1,-,N/A,,Overcast,160,2013-11-16 16:51:00
11:51 AM,80.1,64.0,58,29.85,10.0,South,16.1,24.2,N/A,,Mostly Cloudy,190,2013-11-16 17:51:00
12:25 PM,80.1,64.0,58,29.86,10.0,South,13.8,-,N/A,,Scattered Clouds,190,2013-11-16 18:25:00
12:51 PM,82.0,64.0,54,29.80,10.0,South,16.1,21.9,N/A,,Scattered Clouds,190,2013-11-16 18:51:00
1:51 PM,84.0,64.0,51,29.77,10.0,South,15.0,-,N/A,,Scattered Clouds,170,2013-11-16 19:51:00
2:51 PM,84.9,64.0,49,29.74,10.0,SSW,11.5,-,N/A,,Partly Cloudy,210,2013-11-16 20:51:00
3:51 PM,84.0,63.0,49,29.73,10.0,South,15.0,-,N/A,,Clear,190,2013-11-16 21:51:00
4:51 PM,82.0,63.0,52,29.74,10.0,South,12.7,-,N/A,,Clear,180,2013-11-16 22:51:00
5:51 PM,79.0,64.9,62,29.75,10.0,SSE,10.4,-,N/A,,Clear,160,2013-11-16 23:51:00
6:51 PM,75.9,64.9,69,29.76,10.0,SSE,6.9,-,N/A,,Clear,160,2013-11-17 00:51:00
7:51 PM,73.9,64.9,73,29.78,10.0,SSE,6.9,-,N/A,,Clear,160,2013-11-17 01:51:00
8:51 PM,71.1,64.9,81,29.79,10.0,SSE,3.5,-,N/A,,Clear,150,2013-11-17 02:51:00
9:17 PM,69.1,64.0,84,29.84,10.0,NNW,3.5,-,N/A,,Mostly Cloudy,340,2013-11-17 03:17:00
9:51 PM,71.1,64.9,81,29.81,10.0,Calm,Calm,-,N/A,,Overcast,0,2013-11-17 03:51:00
10:51 PM,71.1,64.0,78,29.79,10.0,SE,3.5,-,N/A,,Scattered Clouds,140,2013-11-17 04:51:00
11:24 PM,70.0,64.0,81,29.83,10.0,North,3.5,-,N/A,,Mostly Cloudy,10,2013-11-17 05:24:00
11:51 PM,71.1,64.9,81,29.78,10.0,East,3.5,-,N/A,,Overcast,80,2013-11-17 05:51:00